Time;durP1;ratioP1;P1;durP2;ratioP2;P2;SDS_P1;SDS_P2;PMS_P1;PMS_P2;Temp;Humidity;BMP_temperature;BMP_pressure;BME280_temperature;BME280_humidity;BME280_pressure;Samples;Min_cycle;Max_cycle;Signal;HPM_P1;HPM_P2
2023/10/24 00:00:06;;;;;;;56.90;29.50;;;;;;;8.93;100.00;100542.45;104475;1274;98725;-78
2023/10/24 00:03:18;;;;;;;41.20;28.80;;;;;;;8.91;100.00;100539.29;104433;1277;104818;-77
2023/10/24 00:06:03;;;;;;;112.70;30.60;;;;;;;8.91;100.00;100538.92;104324;1274;99115;-77
2023/10/24 00:08:49;;;;;;;121.60;30.00;;;;;;;8.89;100.00;100535.92;104392;1276;98946;-77
2023/10/24 00:11:34;;;;;;;60.10;29.80;;;;;;;8.86;100.00;100537.73;104386;1276;99160;-77
2023/10/24 00:14:20;;;;;;;139.60;32.30;;;;;;;8.84;100.00;100538.60;104437;1276;98510;-77
2023/10/24 00:17:05;;;;;;;127.70;31.50;;;;;;;8.83;100.00;100541.44;104400;1273;101359;-77
2023/10/24 00:19:51;;;;;;;98.00;31.10;;;;;;;8.81;100.00;100538.65;104332;1276;100704;-77
2023/10/24 00:22:36;;;;;;;81.20;30.30;;;;;;;8.81;100.00;100538.86;104201;1274;98979;-77
2023/10/24 00:25:21;;;;;;;89.90;32.40;;;;;;;8.78;100.00;100543.98;104268;1276;97927;-78
2023/10/24 00:28:07;;;;;;;66.50;32.00;;;;;;;8.76;100.00;100544.80;104539;1276;97962;-78
2023/10/24 00:30:53;;;;;;;59.90;31.70;;;;;;;8.76;100.00;100539.66;104530;1274;102767;-78
2023/10/24 00:33:39;;;;;;;59.00;31.20;;;;;;;8.78;100.00;100536.46;104758;1276;100200;-78
2023/10/24 00:36:24;;;;;;;47.00;32.50;;;;;;;8.81;100.00;100535.61;104700;1276;98014;-78
2023/10/24 00:39:10;;;;;;;63.20;31.80;;;;;;;8.84;100.00;100535.13;104852;1276;97957;-78
2023/10/24 00:41:56;;;;;;;73.70;32.00;;;;;;;8.86;100.00;100538.92;104779;1273;98011;-78
2023/10/24 00:44:41;;;;;;;55.70;33.00;;;;;;;8.89;100.00;100539.84;104712;1273;103704;-78
2023/10/24 00:47:27;;;;;;;57.70;30.60;;;;;;;8.91;100.00;100544.80;104729;1273;100073;-78
2023/10/24 00:50:13;;;;;;;41.70;30.40;;;;;;;8.93;100.00;100546.86;104711;1277;97899;-78
2023/10/24 00:53:00;;;;;;;47.70;29.40;;;;;;;8.96;100.00;100545.47;104695;1274;98047;-78
2023/10/24 00:55:46;;;;;;;40.20;29.70;;;;;;;8.98;100.00;100546.21;104514;1274;97981;-77
2023/10/24 00:58:31;;;;;;;39.40;28.80;;;;;;;9.00;100.00;100549.90;104372;1276;102637;-77
2023/10/24 01:01:18;;;;;;;40.50;28.30;;;;;;;9.02;100.00;100547.57;104425;1277;100404;-78
2023/10/24 01:04:05;;;;;;;77.60;29.60;;;;;;;9.04;100.00;100543.62;104333;1274;98594;-77
2023/10/24 01:06:52;;;;;;;91.80;31.60;;;;;;;9.03;100.00;100538.04;104415;1276;97934;-77
2023/10/24 01:09:37;;;;;;;69.90;30.20;;;;;;;8.99;100.00;100539.04;104297;1276;99861;-78
2023/10/24 01:12:23;;;;;;;64.10;29.10;;;;;;;8.94;100.00;100542.41;104321;1286;101416;-78
2023/10/24 01:15:09;;;;;;;52.00;30.00;;;;;;;8.93;100.00;100537.65;104391;1276;99360;-77
2023/10/24 01:17:54;;;;;;;62.60;30.10;;;;;;;8.91;100.00;100532.44;104302;1287;97949;-77
2023/10/24 01:20:39;;;;;;;44.00;28.80;;;;;;;8.91;100.00;100530.74;104360;1277;98411;-77
2023/10/24 01:23:28;;;;;;;43.00;28.80;;;;;;;8.87;100.00;100531.66;104340;1278;98545;-77
2023/10/24 01:26:17;;;;;;;44.80;27.80;;;;;;;8.86;100.00;100525.08;104231;1287;102041;-77
2023/10/24 01:29:02;;;;;;;52.40;25.90;;;;;;;8.84;100.00;100522.45;104423;1274;100492;-77
2023/10/24 01:31:47;;;;;;;51.90;27.70;;;;;;;8.81;100.00;100521.52;104299;1277;98133;-77
2023/10/24 01:34:32;;;;;;;57.40;23.20;;;;;;;8.78;100.00;100519.40;104421;1276;98014;-78
2023/10/24 01:37:18;;;;;;;38.00;21.70;;;;;;;8.72;100.00;100517.85;104398;1274;97956;-77
2023/10/24 01:40:04;;;;;;;35.00;23.00;;;;;;;8.67;100.00;100520.05;104450;1276;101396;-78
2023/10/24 01:42:50;;;;;;;35.60;22.90;;;;;;;8.64;100.00;100519.63;104326;1276;99783;-77
2023/10/24 01:45:36;;;;;;;38.60;22.70;;;;;;;8.61;100.00;100513.01;104439;1274;97992;-77
2023/10/24 01:48:23;;;;;;;51.10;22.90;;;;;;;8.56;100.00;100510.34;104415;1287;98011;-78
2023/10/24 01:51:08;;;;;;;33.60;23.20;;;;;;;8.51;100.00;100507.55;104418;1287;98064;-77
2023/10/24 01:53:54;;;;;;;39.10;23.60;;;;;;;8.47;100.00;100512.29;104197;1277;102165;-77
2023/10/24 01:56:39;;;;;;;42.50;23.80;;;;;;;8.45;100.00;100509.39;104313;1287;99333;-77
2023/10/24 01:59:25;;;;;;;66.80;25.50;;;;;;;8.43;100.00;100507.60;104298;1277;98588;-76
2023/10/24 02:02:11;;;;;;;74.30;23.20;;;;;;;8.42;100.00;100504.38;104261;1277;98137;-77
2023/10/24 02:04:56;;;;;;;46.20;24.20;;;;;;;8.36;100.00;100507.42;104396;1274;98515;-78
2023/10/24 02:07:43;;;;;;;60.20;26.60;;;;;;;8.30;100.00;100519.45;104493;1276;102187;-77
2023/10/24 02:10:29;;;;;;;45.80;25.40;;;;;;;8.26;100.00;100521.48;104391;1276;100216;-77
2023/10/24 02:13:14;;;;;;;39.00;23.80;;;;;;;8.26;100.00;100518.34;104440;1276;99168;-78
2023/10/24 02:16:00;;;;;;;46.10;22.90;;;;;;;8.26;100.00;100518.38;104301;1276;98103;-77
2023/10/24 02:18:45;;;;;;;60.80;22.50;;;;;;;8.25;100.00;100519.61;104436;1280;99307;-76
2023/10/24 02:21:31;;;;;;;37.50;23.50;;;;;;;8.26;100.00;100516.73;104482;1274;101432;-76
2023/10/24 02:24:16;;;;;;;40.70;23.50;;;;;;;8.27;100.00;100511.59;104235;1276;99145;-76
2023/10/24 02:27:02;;;;;;;67.70;24.00;;;;;;;8.27;100.00;100512.33;104183;1273;98052;-77
2023/10/24 02:29:48;;;;;;;74.00;25.60;;;;;;;8.26;100.00;100516.56;104148;1276;98087;-76
2023/10/24 02:32:33;;;;;;;61.90;25.00;;;;;;;8.25;100.00;100515.22;104187;1287;98498;-77
2023/10/24 02:35:19;;;;;;;55.90;25.30;;;;;;;8.25;100.00;100510.39;104293;1277;101398;-78
2023/10/24 02:38:06;;;;;;;34.10;25.70;;;;;;;8.26;100.00;100507.83;104372;1273;99103;-78
2023/10/24 02:40:52;;;;;;;58.00;26.40;;;;;;;8.27;100.00;100503.62;104405;1276;97999;-77
2023/10/24 02:43:38;;;;;;;54.80;26.90;;;;;;;8.27;100.00;100500.76;104406;1276;97899;-77
2023/10/24 02:46:23;;;;;;;70.20;25.00;;;;;;;8.25;100.00;100500.26;104466;1273;98232;-77
2023/10/24 02:49:09;;;;;;;46.30;24.00;;;;;;;8.23;100.00;100497.14;104341;1276;101503;-77
2023/10/24 02:51:54;;;;;;;63.70;25.00;;;;;;;8.20;100.00;100502.05;104166;1276;100014;-78
2023/10/24 02:54:40;;;;;;;46.50;25.30;;;;;;;8.19;100.00;100499.55;104666;1276;99078;-78
2023/10/24 02:57:25;;;;;;;49.10;24.10;;;;;;;8.19;100.00;100498.52;104685;1276;97927;-79
2023/10/24 03:00:11;;;;;;;58.60;25.10;;;;;;;8.18;100.00;100499.30;104829;1273;97923;-78
2023/10/24 03:02:57;;;;;;;34.70;24.70;;;;;;;8.18;100.00;100498.98;104721;1273;101462;-76
2023/10/24 03:05:42;;;;;;;95.00;27.70;;;;;;;8.19;100.00;100504.39;104406;1277;99237;-77
2023/10/24 03:08:28;;;;;;;68.10;27.10;;;;;;;8.17;100.00;100505.08;104411;1276;97987;-77
2023/10/24 03:11:21;;;;;;;54.50;26.40;;;;;;;8.18;100.00;100501.02;104332;1273;97985;-77
2023/10/24 03:14:06;;;;;;;107.90;25.80;;;;;;;8.20;100.00;100493.92;104477;1274;99691;-77
2023/10/24 03:16:51;;;;;;;74.30;29.10;;;;;;;8.20;100.00;100496.35;104414;1276;101637;-77
2023/10/24 03:19:37;;;;;;;115.30;27.30;;;;;;;8.22;100.00;100494.70;104361;1287;99133;-77
2023/10/24 03:22:23;;;;;;;54.50;24.20;;;;;;;8.25;100.00;100487.78;104376;1272;98026;-77
2023/10/24 03:25:08;;;;;;;88.40;25.30;;;;;;;8.29;100.00;100488.30;104339;1273;99311;-77
2023/10/24 03:27:54;;;;;;;97.30;25.90;;;;;;;8.32;100.00;100489.02;104397;1273;98005;-78
2023/10/24 03:30:40;;;;;;;44.90;25.80;;;;;;;8.32;100.00;100488.21;104518;1273;102211;-78
2023/10/24 03:33:29;;;;;;;52.70;25.10;;;;;;;8.32;100.00;100485.98;104339;1277;100861;-77
2023/10/24 03:36:15;;;;;;;67.90;25.80;;;;;;;8.32;100.00;100485.09;104316;1276;99670;-78
2023/10/24 03:39:02;;;;;;;74.90;23.40;;;;;;;8.32;100.00;100478.27;104359;1276;97921;-78
2023/10/24 03:41:48;;;;;;;90.00;25.80;;;;;;;8.33;100.00;100476.30;105021;1276;97954;-77
2023/10/24 03:44:33;;;;;;;60.50;24.50;;;;;;;8.31;100.00;100478.21;104358;1277;101450;-77
2023/10/24 03:47:19;;;;;;;52.10;25.30;;;;;;;8.30;100.00;100479.91;104313;1277;100473;-77
2023/10/24 03:50:05;;;;;;;56.40;24.30;;;;;;;8.31;100.00;100477.67;104407;1276;98322;-77
2023/10/24 03:52:50;;;;;;;59.10;23.90;;;;;;;8.32;100.00;100476.17;104248;1277;97982;-78
2023/10/24 03:55:35;;;;;;;55.20;22.50;;;;;;;8.32;100.00;100471.23;104329;1276;98595;-78
2023/10/24 03:58:21;;;;;;;57.80;22.80;;;;;;;8.31;100.00;100465.94;104339;1276;102121;-77
2023/10/24 04:01:07;;;;;;;74.10;23.10;;;;;;;8.31;100.00;100458.17;104455;1276;99150;-78
2023/10/24 04:03:53;;;;;;;71.90;23.10;;;;;;;8.30;100.00;100454.17;104343;1287;98096;-77
2023/10/24 04:06:38;;;;;;;34.90;22.00;;;;;;;8.30;100.00;100449.94;104247;1273;98021;-78
2023/10/24 04:09:24;;;;;;;50.30;22.50;;;;;;;8.31;100.00;100453.49;104410;1273;97883;-76
2023/10/24 04:12:09;;;;;;;92.40;21.90;;;;;;;8.33;100.00;100452.42;104472;1274;101484;-78
2023/10/24 04:14:55;;;;;;;42.50;22.40;;;;;;;8.34;100.00;100448.38;104386;1273;99178;-79
2023/10/24 04:17:41;;;;;;;79.00;22.90;;;;;;;8.34;100.00;100443.54;104302;1276;98011;-77
2023/10/24 04:20:26;;;;;;;79.50;23.70;;;;;;;8.35;100.00;100442.52;104293;1276;97947;-77
2023/10/24 04:23:15;;;;;;;77.80;21.80;;;;;;;8.37;100.00;100440.71;104306;1273;97893;-77
2023/10/24 04:26:04;;;;;;;74.30;22.30;;;;;;;8.37;100.00;100435.50;104321;1276;102620;-77
2023/10/24 04:28:50;;;;;;;61.30;20.50;;;;;;;8.35;100.00;100434.48;104716;1273;100932;-78
2023/10/24 04:31:35;;;;;;;105.60;23.40;;;;;;;8.34;100.00;100437.88;104755;1277;98973;-79
2023/10/24 04:34:21;;;;;;;115.30;22.00;;;;;;;8.33;100.00;100434.64;104641;1277;98004;-77
2023/10/24 04:37:06;;;;;;;63.40;21.20;;;;;;;8.32;100.00;100437.44;104588;1276;98491;-78
2023/10/24 04:39:54;;;;;;;100.40;22.20;;;;;;;8.31;100.00;100438.89;104653;1276;102339;-77
2023/10/24 04:42:39;;;;;;;74.50;21.70;;;;;;;8.32;100.00;100442.20;104509;1274;99131;-80
2023/10/24 04:45:29;;;;;;;46.40;21.30;;;;;;;8.34;100.00;100446.80;104603;1273;99149;-78
2023/10/24 04:48:15;;;;;;;87.30;22.30;;;;;;;8.37;100.00;100453.02;104436;1274;98001;-78
2023/10/24 04:51:01;;;;;;;70.80;21.90;;;;;;;8.38;100.00;100455.39;104664;1273;97883;-79
2023/10/24 04:53:46;;;;;;;92.60;22.40;;;;;;;8.40;100.00;100456.78;104573;1273;101368;-79
2023/10/24 04:56:31;;;;;;;117.80;22.90;;;;;;;8.42;100.00;100461.35;104779;1275;100451;-79
2023/10/24 04:59:18;;;;;;;112.40;22.40;;;;;;;8.41;100.00;100460.84;104524;1274;97940;-77
2023/10/24 05:02:04;;;;;;;70.50;20.40;;;;;;;8.39;100.00;100463.91;104317;1273;98117;-78
2023/10/24 05:04:49;;;;;;;83.40;21.50;;;;;;;8.39;100.00;100464.98;104522;1272;97865;-78
2023/10/24 05:07:35;;;;;;;71.70;21.90;;;;;;;8.39;100.00;100467.15;104818;1270;101446;-78
2023/10/24 05:10:21;;;;;;;97.30;21.60;;;;;;;8.39;100.00;100468.09;104718;1273;99946;-78
2023/10/24 05:13:06;;;;;;;92.70;22.40;;;;;;;8.36;100.00;100469.77;104736;1276;97970;-78
2023/10/24 05:15:52;;;;;;;92.70;21.80;;;;;;;8.34;100.00;100474.20;104495;1276;97989;-78
2023/10/24 05:18:37;;;;;;;75.10;21.80;;;;;;;8.30;100.00;100472.31;104330;1274;98574;-78
2023/10/24 05:21:23;;;;;;;51.70;21.20;;;;;;;8.25;100.00;100471.66;104347;1276;102660;-77
2023/10/24 05:24:08;;;;;;;37.50;19.90;;;;;;;8.24;100.00;100478.84;104255;1284;99173;-77
2023/10/24 05:26:54;;;;;;;32.00;20.40;;;;;;;8.25;100.00;100485.02;104372;1276;98993;-77
2023/10/24 05:29:42;;;;;;;53.10;21.00;;;;;;;8.27;100.00;100494.31;104343;1276;98075;-79
2023/10/24 05:32:27;;;;;;;40.40;20.50;;;;;;;8.30;100.00;100502.37;104389;1274;97876;-77
2023/10/24 05:35:13;;;;;;;35.70;20.30;;;;;;;8.33;100.00;100506.16;104444;1276;101383;-78
2023/10/24 05:37:58;;;;;;;31.00;20.60;;;;;;;8.36;100.00;100502.60;104415;1276;99852;-77
2023/10/24 05:40:45;;;;;;;32.60;19.10;;;;;;;8.37;100.00;100503.34;104545;1276;99006;-79
2023/10/24 05:43:31;;;;;;;45.70;18.50;;;;;;;8.39;100.00;100505.43;104616;1276;97997;-79
2023/10/24 05:46:16;;;;;;;46.30;19.00;;;;;;;8.40;100.00;100508.52;104397;1276;98020;-77
2023/10/24 05:49:02;;;;;;;76.70;19.00;;;;;;;8.41;100.00;100502.65;104258;1276;101469;-77
2023/10/24 05:51:47;;;;;;;57.70;18.90;;;;;;;8.42;100.00;100498.52;104320;1276;100460;-78
2023/10/24 05:54:36;;;;;;;36.00;17.30;;;;;;;8.42;100.00;100501.55;104519;1273;98005;-78
2023/10/24 05:57:23;;;;;;;53.90;17.90;;;;;;;8.41;100.00;100504.35;104463;1276;97983;-76
2023/10/24 06:00:09;;;;;;;54.50;17.30;;;;;;;8.40;100.00;100503.31;104510;1272;98513;-77
2023/10/24 06:02:55;;;;;;;46.30;17.10;;;;;;;8.41;100.00;100499.51;104154;1276;102178;-77
2023/10/24 06:05:41;;;;;;;65.40;18.30;;;;;;;8.40;100.00;100492.80;104618;1273;100547;-77
2023/10/24 06:08:26;;;;;;;59.30;17.30;;;;;;;8.37;100.00;100484.45;104504;1276;98804;-79
2023/10/24 06:11:15;;;;;;;47.20;18.80;;;;;;;8.37;100.00;100479.92;104572;1279;98097;-78
2023/10/24 06:14:00;;;;;;;61.80;18.70;;;;;;;8.37;100.00;100479.52;104592;1276;97995;-77
2023/10/24 06:16:46;;;;;;;85.50;19.00;;;;;;;8.36;100.00;100480.66;104352;1273;102684;-78
2023/10/24 06:19:33;;;;;;;59.10;18.80;;;;;;;8.37;100.00;100473.31;104658;1276;99314;-77
2023/10/24 06:22:18;;;;;;;41.00;19.30;;;;;;;8.39;100.00;100472.35;104372;1273;99323;-77
2023/10/24 06:25:04;;;;;;;117.20;21.70;;;;;;;8.40;100.00;100470.91;104444;1273;98056;-78
2023/10/24 06:27:50;;;;;;;61.00;21.80;;;;;;;8.43;100.00;100470.10;104338;1274;98458;-77
2023/10/24 06:30:35;;;;;;;66.40;20.90;;;;;;;8.47;100.00;100466.98;104156;1273;102122;-78
2023/10/24 06:33:21;;;;;;;94.30;22.50;;;;;;;8.49;100.00;100466.66;104424;1273;100396;-79
2023/10/24 06:36:07;;;;;;;66.10;20.60;;;;;;;8.49;100.00;100464.52;104463;1278;98343;-77
2023/10/24 06:38:52;;;;;;;80.50;22.30;;;;;;;8.51;100.00;100467.69;104707;1276;98014;-84
2023/10/24 06:41:38;;;;;;;84.20;21.80;;;;;;;8.53;100.00;100464.10;105036;1273;99758;-83
2023/10/24 06:44:26;;;;;;;39.00;22.20;;;;;;;8.57;100.00;100469.41;105007;1277;101523;-85
2023/10/24 06:47:12;;;;;;;58.80;24.30;;;;;;;8.60;100.00;100471.33;105014;1273;100440;-85
2023/10/24 06:50:00;;;;;;;87.10;25.00;;;;;;;8.64;100.00;100474.97;104839;1276;98862;-85
2023/10/24 06:52:45;;;;;;;57.70;23.80;;;;;;;8.69;100.00;100474.25;105095;1273;97995;-85
2023/10/24 06:55:31;;;;;;;98.00;25.00;;;;;;;8.72;100.00;100470.98;104960;1273;99699;-85
2023/10/24 06:58:17;;;;;;;97.10;21.40;;;;;;;8.74;100.00;100470.36;104794;1274;102171;-85
2023/10/24 07:01:11;;;;;;;62.20;22.20;;;;;;;8.75;100.00;100473.12;105253;1271;100838;-93
2023/10/24 07:04:06;;;;;;;63.90;23.60;;;;;;;8.77;100.00;100473.05;105442;1272;98820;-91
2023/10/24 07:07:04;;;;;;;80.70;24.50;;;;;;;8.82;100.00;100481.07;105538;1279;98521;-88
2023/10/24 07:09:50;;;;;;;82.10;25.40;;;;;;;8.85;100.00;100484.45;105355;1272;98419;-85
2023/10/24 07:12:36;;;;;;;90.90;24.80;;;;;;;8.88;100.00;100482.78;105257;1277;101457;-85
2023/10/24 07:15:22;;;;;;;84.90;24.90;;;;;;;8.92;100.00;100481.44;105056;1276;99224;-87
2023/10/24 07:20:57;;;;;;;58.40;23.00;;;;;;;8.99;100.00;100483.30;104246;1272;98114;-79
2023/10/24 07:23:43;;;;;;;52.70;22.80;;;;;;;9.00;100.00;100482.70;104764;1273;98519;-78
2023/10/24 07:26:28;;;;;;;55.30;24.80;;;;;;;9.03;100.00;100483.53;104542;1285;101333;-77
2023/10/24 07:29:14;;;;;;;62.00;22.50;;;;;;;9.06;100.00;100483.14;104124;1274;100366;-77
2023/10/24 07:32:00;;;;;;;56.00;23.60;;;;;;;9.09;100.00;100478.11;104298;1273;98524;-76
2023/10/24 07:34:48;;;;;;;68.00;25.40;;;;;;;9.14;100.00;100481.46;104597;1273;98017;-81
2023/10/24 07:37:36;;;;;;;60.70;25.30;;;;;;;9.18;100.00;100485.23;105774;1272;97191;-87
2023/10/24 07:40:22;;;;;;;62.40;23.20;;;;;;;9.24;100.00;100472.28;105324;1270;102719;-87
2023/10/24 07:43:08;;;;;;;45.50;24.10;;;;;;;9.28;100.00;100461.49;104943;1276;100485;-88
2023/10/24 07:45:54;;;;;;;48.40;24.70;;;;;;;9.32;100.00;100439.53;105202;1274;99138;-85
2023/10/24 07:48:40;;;;;;;48.90;26.50;;;;;;;9.37;100.00;100432.01;105221;1276;97886;-84
2023/10/24 07:51:31;;;;;;;45.20;25.60;;;;;;;9.42;100.00;100436.80;105258;1272;98039;-88
2023/10/24 07:54:17;;;;;;;45.10;26.90;;;;;;;9.47;100.00;100442.46;105374;1273;102831;-84
2023/10/24 07:57:03;;;;;;;50.40;26.60;;;;;;;9.52;100.00;100438.08;105206;1274;100330;-83
2023/10/24 07:59:49;;;;;;;51.40;27.40;;;;;;;9.56;100.00;100428.45;105157;1273;98033;-84
2023/10/24 08:02:34;;;;;;;40.50;26.50;;;;;;;9.61;100.00;100414.93;105352;1274;97985;-79
2023/10/24 08:05:20;;;;;;;47.40;26.70;;;;;;;9.64;100.00;100404.53;104701;1273;98545;-80
2023/10/24 08:08:05;;;;;;;50.30;28.10;;;;;;;9.68;100.00;100391.91;105645;1274;101408;-81
2023/10/24 08:10:51;;;;;;;42.40;26.10;;;;;;;9.72;100.00;100379.87;105391;1272;99928;-86
2023/10/24 08:13:38;;;;;;;48.70;27.60;;;;;;;9.75;100.00;100377.73;104937;1274;99012;-86
2023/10/24 08:16:24;;;;;;;46.00;27.20;;;;;;;9.79;100.00;100369.14;105324;1273;98045;-87
2023/10/24 08:19:09;;;;;;;49.30;29.20;;;;;;;9.83;100.00;100368.77;105040;1272;99234;-85
2023/10/24 08:21:55;;;;;;;47.90;27.10;;;;;;;9.88;100.00;100371.02;104614;1279;101466;-83
2023/10/24 08:24:41;;;;;;;48.10;28.30;;;;;;;9.94;100.00;100372.80;105141;1273;99662;-83
2023/10/24 08:27:27;;;;;;;43.90;28.10;;;;;;;10.01;100.00;100386.40;104978;1276;98025;-80
2023/10/24 08:30:12;;;;;;;42.30;27.60;;;;;;;10.07;100.00;100385.41;105008;1276;97960;-79
2023/10/24 08:32:58;;;;;;;48.10;30.80;;;;;;;10.15;100.00;100381.10;104535;1276;98016;-82
2023/10/24 08:35:44;;;;;;;60.60;33.90;;;;;;;10.23;100.00;100384.95;105228;1276;102817;-83
2023/10/24 08:38:30;;;;;;;75.10;43.50;;;;;;;10.31;100.00;100397.80;106564;1276;99873;-83
2023/10/24 08:41:15;;;;;;;73.10;42.70;;;;;;;10.40;100.00;100404.52;106025;1276;107662;-84
2023/10/24 08:44:02;;;;;;;77.90;44.50;;;;;;;10.48;100.00;100403.26;104914;1273;98118;-84
2023/10/24 08:46:48;;;;;;;99.60;52.90;;;;;;;10.56;100.00;100404.49;105111;1274;96937;-87
2023/10/24 08:49:37;;;;;;;93.30;50.00;;;;;;;10.66;100.00;100404.96;105575;1274;101462;-86
2023/10/24 08:52:23;;;;;;;85.50;49.50;;;;;;;10.77;100.00;100399.86;105544;1273;99208;-84
2023/10/24 08:55:09;;;;;;;137.50;70.60;;;;;;;10.88;100.00;100397.90;105242;1273;98107;-77
2023/10/24 08:57:56;;;;;;;122.10;68.80;;;;;;;10.98;100.00;100394.52;104119;1283;97998;-78
2023/10/24 09:00:43;;;;;;;110.10;63.50;;;;;;;11.09;100.00;100387.42;104522;1276;97930;-78
2023/10/24 09:03:28;;;;;;;83.30;50.60;;;;;;;11.17;100.00;100383.27;104644;1273;101428;-78
2023/10/24 09:06:15;;;;;;;71.50;44.00;;;;;;;11.21;100.00;100381.20;104340;1273;99103;-78
2023/10/24 09:09:00;;;;;;;63.40;41.70;;;;;;;11.25;100.00;100384.61;104373;1276;98025;-78
2023/10/24 09:11:56;;;;;;;72.80;41.10;;;;;;;11.31;100.00;100385.19;104325;1274;97982;-77
2023/10/24 09:14:46;;;;;;;63.70;39.30;;;;;;;11.37;100.00;100390.30;104019;1276;98561;-77
2023/10/24 09:17:32;;;;;;;64.30;40.40;;;;;;;11.41;100.00;100387.69;104285;1276;102710;-78
2023/10/24 09:20:18;;;;;;;67.10;44.30;;;;;;;11.46;100.00;100385.78;104167;1273;100078;-77
2023/10/24 09:23:09;;;;;;;63.30;40.10;;;;;;;11.53;100.00;100375.21;104334;1273;98058;-78
2023/10/24 09:25:54;;;;;;;61.10;38.40;;;;;;;11.62;100.00;100357.71;104430;1277;98026;-78
2023/10/24 09:28:40;;;;;;;58.10;39.10;;;;;;;11.68;100.00;100347.30;104776;1275;98021;-79
2023/10/24 09:31:26;;;;;;;83.70;62.50;;;;;;;11.73;100.00;100347.23;105475;1276;101349;-78
2023/10/24 09:34:13;;;;;;;62.60;43.90;;;;;;;11.78;100.00;100339.23;104424;1276;99802;-84
2023/10/24 09:37:10;;;;;;;78.50;52.20;;;;;;;11.84;100.00;100331.09;105084;1277;98055;-84
2023/10/24 09:39:58;;;;;;;59.80;41.70;;;;;;;11.91;100.00;100320.63;104921;1274;97961;-79
2023/10/24 09:42:46;;;;;;;59.40;40.60;;;;;;;11.99;100.00;100319.54;105357;1273;98737;-79
2023/10/24 09:45:33;;;;;;;61.70;39.60;;;;;;;12.08;100.00;100322.23;104848;1273;101333;-78
2023/10/24 09:48:21;;;;;;;72.00;46.40;;;;;;;12.18;100.00;100313.66;105118;1276;99256;-80
2023/10/24 09:51:07;;;;;;;102.70;64.60;;;;;;;12.24;100.00;100304.92;105527;1276;99278;-80
2023/10/24 09:53:53;;;;;;;63.60;38.70;;;;;;;12.30;100.00;100301.41;105079;1273;98065;-80
2023/10/24 09:56:39;;;;;;;63.40;41.80;;;;;;;12.38;100.00;100297.30;104996;1273;97897;-80
2023/10/24 09:59:26;;;;;;;59.80;37.80;;;;;;;12.47;100.00;100288.05;105293;1274;102591;-79
2023/10/24 10:02:13;;;;;;;73.30;47.80;;;;;;;12.57;100.00;100277.05;104855;1276;99168;-79
2023/10/24 10:04:58;;;;;;;43.10;30.50;;;;;;;12.65;100.00;100269.64;104601;1276;98428;-78
2023/10/24 10:07:48;;;;;;;39.90;25.70;;;;;;;12.73;100.00;100267.11;104560;1276;99264;-78
2023/10/24 10:10:37;;;;;;;35.30;25.40;;;;;;;12.82;100.00;100262.09;104795;1273;97241;-79
2023/10/24 10:13:30;;;;;;;41.80;27.10;;;;;;;12.89;100.00;100258.65;106735;1273;102973;-79
2023/10/24 10:16:30;;;;;;;40.50;28.60;;;;;;;12.98;100.00;100257.23;105516;1273;100256;-80
2023/10/24 10:19:47;;;;;;;33.20;20.40;;;;;;;13.07;100.00;100258.77;105355;1274;99042;-80
2023/10/24 10:23:00;;;;;;;29.80;18.20;;;;;;;13.16;100.00;100258.11;104968;1274;98865;-80
2023/10/24 10:26:22;;;;;;;25.20;18.40;;;;;;;13.23;100.00;100257.23;104964;1276;98433;-79
2023/10/24 10:29:24;;;;;;;30.10;18.80;;;;;;;13.29;100.00;100253.67;104726;1276;101998;-79
2023/10/24 10:32:10;;;;;;;24.10;16.60;;;;;;;13.35;100.00;100247.88;104616;1276;110247;-79
2023/10/24 10:34:55;;;;;;;27.40;16.80;;;;;;;13.39;100.00;100243.14;104879;1274;99013;-78
2023/10/24 10:38:00;;;;;;;29.60;16.80;;;;;;;13.45;100.00;100239.80;104954;1273;98589;-79
2023/10/24 10:40:45;;;;;;;26.20;17.30;;;;;;;13.52;100.00;100229.51;104703;1276;99880;-78
2023/10/24 10:43:31;;;;;;;24.10;17.50;;;;;;;13.56;100.00;100232.08;104606;1274;111785;-79
2023/10/24 10:46:26;;;;;;;29.60;16.50;;;;;;;13.60;100.00;100222.14;104799;1277;99225;-79
2023/10/24 10:49:11;;;;;;;29.60;18.30;;;;;;;13.65;100.00;100213.13;104678;1276;97931;-78
2023/10/24 10:52:00;;;;;;;29.20;18.40;;;;;;;13.70;100.00;100213.91;104718;1273;98020;-78
2023/10/24 10:54:59;;;;;;;27.60;17.80;;;;;;;13.75;100.00;100212.52;105030;1273;97820;-79
2023/10/24 10:58:02;;;;;;;26.80;18.50;;;;;;;13.79;100.00;100207.82;105216;1273;101489;-78
2023/10/24 11:01:13;;;;;;;50.30;31.70;;;;;;;13.84;100.00;100203.60;104910;1273;100432;-78
2023/10/24 11:03:59;;;;;;;25.60;18.60;;;;;;;13.87;100.00;100201.26;104759;1276;98020;-78
2023/10/24 11:06:52;;;;;;;41.40;25.10;;;;;;;13.90;100.00;100197.59;104736;1276;97991;-78
2023/10/24 11:09:38;;;;;;;26.40;18.30;;;;;;;13.92;100.00;100192.52;104704;1273;98110;-79
2023/10/24 11:12:25;;;;;;;22.20;14.80;;;;;;;13.95;100.00;100193.59;104831;1273;101562;-78
2023/10/24 11:15:13;;;;;;;24.70;15.80;;;;;;;13.97;100.00;100194.15;104539;1279;99237;-80
2023/10/24 11:17:59;;;;;;;26.70;13.90;;;;;;;14.00;100.00;100193.43;104770;1271;98787;-79
2023/10/24 11:20:44;;;;;;;20.90;13.10;;;;;;;14.04;100.00;100195.88;104750;1273;97921;-79
2023/10/24 11:23:32;;;;;;;17.20;12.40;;;;;;;14.08;100.00;100201.16;105238;1276;97866;-79
2023/10/24 11:26:18;;;;;;;19.70;12.20;;;;;;;14.13;100.00;100202.11;105570;1272;101517;-86
2023/10/24 11:29:04;;;;;;;18.20;14.20;;;;;;;14.17;100.00;100199.23;104793;1276;99340;-85
2023/10/24 11:31:49;;;;;;;23.30;13.20;;;;;;;14.22;100.00;100197.27;104925;1274;99271;-86
2023/10/24 11:34:36;;;;;;;21.70;11.30;;;;;;;14.25;100.00;100191.69;104981;1274;98002;-85
2023/10/24 11:37:22;;;;;;;20.40;13.60;;;;;;;14.29;100.00;100191.09;105194;1272;97800;-86
2023/10/24 11:40:08;;;;;;;17.20;12.20;;;;;;;14.33;100.00;100200.77;105073;1273;102130;-87
2023/10/24 11:43:06;;;;;;;15.00;11.20;;;;;;;14.36;100.00;100202.54;104937;1273;99325;-86
2023/10/24 11:45:52;;;;;;;20.20;11.70;;;;;;;14.40;100.00;100195.65;104869;1272;98036;-84
2023/10/24 11:48:38;;;;;;;16.80;9.90;;;;;;;14.43;100.00;100192.05;105092;1276;98066;-86
2023/10/24 11:51:25;;;;;;;15.20;10.40;;;;;;;14.48;100.00;100185.12;105470;1272;98055;-89
2023/10/24 11:54:11;;;;;;;15.90;9.90;;;;;;;14.52;100.00;100186.13;104829;1273;102498;-83
2023/10/24 11:57:01;;;;;;;18.00;9.20;;;;;;;14.56;100.00;100169.95;105295;1273;100435;-87
2023/10/24 11:59:48;;;;;;;16.70;9.90;;;;;;;14.59;100.00;100156.08;105206;1273;97899;-82
2023/10/24 12:02:40;;;;;;;16.80;9.50;;;;;;;14.62;100.00;100149.77;105024;1274;97909;-84
2023/10/24 12:05:26;;;;;;;17.90;11.20;;;;;;;14.64;100.00;100144.49;104883;1281;98592;-85
2023/10/24 12:08:12;;;;;;;11.60;8.50;;;;;;;14.66;100.00;100140.57;105051;1274;102814;-87
2023/10/24 12:10:58;;;;;;;16.10;11.70;;;;;;;14.68;100.00;100130.35;105185;1276;99139;-88
2023/10/24 12:13:45;;;;;;;14.50;9.90;;;;;;;14.70;100.00;100123.70;105348;1273;97901;-88
2023/10/24 12:16:32;;;;;;;16.80;10.20;;;;;;;14.73;100.00;100118.06;104873;1279;98047;-83
2023/10/24 12:19:18;;;;;;;15.20;10.60;;;;;;;14.76;100.00;100122.84;104993;1273;98424;-84
2023/10/24 12:22:04;;;;;;;16.30;10.10;;;;;;;14.79;100.00;100130.31;105317;1276;102771;-88
2023/10/24 12:24:49;;;;;;;15.90;9.60;;;;;;;14.80;100.00;100133.11;105009;1273;99369;-87
2023/10/24 12:27:35;;;;;;;14.90;9.50;;;;;;;14.83;100.00;100141.42;105114;1273;98955;-86